sensor_id;sensor_type;location;lat;lon;timestamp;pressure;altitude;pressure_sealevel;temperature;humidity
10464;BME280;5279;42.048;24.638;2023-04-30T00:00:26;97159.47;;;12.84;100.00
10464;BME280;5279;42.048;24.638;2023-04-30T00:02:54;97181.56;;;12.84;100.00
10464;BME280;5279;42.048;24.638;2023-04-30T00:05:21;97177.56;;;12.96;100.00
10464;BME280;5279;42.048;24.638;2023-04-30T00:07:48;97176.91;;;12.86;100.00
10464;BME280;5279;42.048;24.638;2023-04-30T00:10:15;97175.94;;;12.63;100.00
10464;BME280;5279;42.048;24.638;2023-04-30T00:12:42;97178.09;;;12.68;100.00
10464;BME280;5279;42.048;24.638;2023-04-30T00:15:09;97183.25;;;12.69;100.00
10464;BME280;5279;42.048;24.638;2023-04-30T00:17:36;97169.97;;;12.69;100.00
10464;BME280;5279;42.048;24.638;2023-04-30T00:20:06;97168.97;;;12.62;100.00
10464;BME280;5279;42.048;24.638;2023-04-30T00:22:33;97170.97;;;12.60;100.00
10464;BME280;5279;42.048;24.638;2023-04-30T00:25:00;97168.00;;;12.55;100.00
10464;BME280;5279;42.048;24.638;2023-04-30T00:27:27;97178.13;;;12.51;100.00
10464;BME280;5279;42.048;24.638;2023-04-30T00:29:55;97169.63;;;12.56;100.00
10464;BME280;5279;42.048;24.638;2023-04-30T00:32:22;97172.97;;;12.42;100.00
10464;BME280;5279;42.048;24.638;2023-04-30T00:34:49;97170.66;;;12.31;100.00
10464;BME280;5279;42.048;24.638;2023-04-30T00:37:18;97174.63;;;12.43;100.00
10464;BME280;5279;42.048;24.638;2023-04-30T00:39:45;97177.94;;;12.45;100.00
10464;BME280;5279;42.048;24.638;2023-04-30T00:42:12;97177.44;;;12.49;100.00
10464;BME280;5279;42.048;24.638;2023-04-30T00:44:39;97182.25;;;12.54;100.00
10464;BME280;5279;42.048;24.638;2023-04-30T00:47:06;97177.94;;;12.53;100.00
10464;BME280;5279;42.048;24.638;2023-04-30T00:49:33;97181.59;;;12.52;100.00
10464;BME280;5279;42.048;24.638;2023-04-30T00:52:00;97174.28;;;12.54;100.00
10464;BME280;5279;42.048;24.638;2023-04-30T00:54:28;97184.28;;;12.52;100.00
10464;BME280;5279;42.048;24.638;2023-04-30T00:56:57;97171.63;;;12.54;100.00
10464;BME280;5279;42.048;24.638;2023-04-30T00:59:24;97171.63;;;12.38;100.00
10464;BME280;5279;42.048;24.638;2023-04-30T01:01:51;97170.00;;;12.37;100.00
10464;BME280;5279;42.048;24.638;2023-04-30T01:04:19;97167.31;;;12.45;100.00
10464;BME280;5279;42.048;24.638;2023-04-30T01:06:46;97162.34;;;12.42;100.00
10464;BME280;5279;42.048;24.638;2023-04-30T01:09:13;97166.66;;;12.35;100.00
10464;BME280;5279;42.048;24.638;2023-04-30T01:11:49;97151.88;;;12.32;100.00
10464;BME280;5279;42.048;24.638;2023-04-30T01:14:27;97157.69;;;12.36;100.00
10464;BME280;5279;42.048;24.638;2023-04-30T01:17:02;97155.03;;;12.36;100.00
10464;BME280;5279;42.048;24.638;2023-04-30T01:19:37;97157.69;;;12.44;100.00
10464;BME280;5279;42.048;24.638;2023-04-30T01:22:08;97160.66;;;12.41;100.00
10464;BME280;5279;42.048;24.638;2023-04-30T01:24:56;97163.16;;;12.34;100.00
10464;BME280;5279;42.048;24.638;2023-04-30T01:27:46;97166.66;;;12.35;100.00
10464;BME280;5279;42.048;24.638;2023-04-30T01:30:16;97163.31;;;12.41;100.00
10464;BME280;5279;42.048;24.638;2023-04-30T01:32:44;97160.34;;;12.36;100.00
10464;BME280;5279;42.048;24.638;2023-04-30T01:35:10;97165.66;;;12.28;100.00
10464;BME280;5279;42.048;24.638;2023-04-30T01:37:45;97163.00;;;12.28;100.00
10464;BME280;5279;42.048;24.638;2023-04-30T01:40:23;97158.69;;;12.35;100.00
10464;BME280;5279;42.048;24.638;2023-04-30T01:43:00;97169.66;;;12.40;100.00
10464;BME280;5279;42.048;24.638;2023-04-30T01:45:39;97153.03;;;12.14;100.00
10464;BME280;5279;42.048;24.638;2023-04-30T01:48:17;97159.03;;;12.16;100.00
10464;BME280;5279;42.048;24.638;2023-04-30T01:50:52;97159.03;;;12.16;100.00
10464;BME280;5279;42.048;24.638;2023-04-30T01:53:23;97161.31;;;12.11;100.00
10464;BME280;5279;42.048;24.638;2023-04-30T01:56:01;97156.00;;;12.02;100.00
10464;BME280;5279;42.048;24.638;2023-04-30T01:58:31;97156.00;;;12.02;100.00
10464;BME280;5279;42.048;24.638;2023-04-30T02:00:58;97147.41;;;12.00;100.00
10464;BME280;5279;42.048;24.638;2023-04-30T02:03:25;97140.41;;;11.91;100.00
10464;BME280;5279;42.048;24.638;2023-04-30T02:05:52;97144.72;;;11.92;100.00
10464;BME280;5279;42.048;24.638;2023-04-30T02:08:19;97134.41;;;11.73;100.00
10464;BME280;5279;42.048;24.638;2023-04-30T02:10:46;97143.41;;;11.88;100.00
10464;BME280;5279;42.048;24.638;2023-04-30T02:13:13;97133.91;;;11.86;100.00
10464;BME280;5279;42.048;24.638;2023-04-30T02:15:41;97146.56;;;12.00;100.00
10464;BME280;5279;42.048;24.638;2023-04-30T02:18:08;97147.22;;;12.02;100.00
10464;BME280;5279;42.048;24.638;2023-04-30T02:20:37;97144.19;;;11.89;100.00
10464;BME280;5279;42.048;24.638;2023-04-30T02:23:04;97145.03;;;11.81;100.00
10464;BME280;5279;42.048;24.638;2023-04-30T02:25:31;97147.69;;;11.81;100.00
10464;BME280;5279;42.048;24.638;2023-04-30T02:28:02;97137.06;;;11.73;100.00
10464;BME280;5279;42.048;24.638;2023-04-30T02:30:29;97142.06;;;11.84;100.00
10464;BME280;5279;42.048;24.638;2023-04-30T02:32:57;97146.03;;;11.80;100.00
10464;BME280;5279;42.048;24.638;2023-04-30T02:35:24;97146.34;;;11.77;100.00
10464;BME280;5279;42.048;24.638;2023-04-30T02:37:51;97140.06;;;11.78;100.00
10464;BME280;5279;42.048;24.638;2023-04-30T02:40:18;97153.00;;;11.81;100.00
10464;BME280;5279;42.048;24.638;2023-04-30T02:42:45;97136.38;;;11.71;100.00
10464;BME280;5279;42.048;24.638;2023-04-30T02:45:13;97136.66;;;11.60;100.00
10464;BME280;5279;42.048;24.638;2023-04-30T02:47:39;97142.56;;;11.46;100.00
10464;BME280;5279;42.048;24.638;2023-04-30T02:50:09;97147.72;;;11.39;100.00
10464;BME280;5279;42.048;24.638;2023-04-30T02:52:36;97141.94;;;11.52;100.00
10464;BME280;5279;42.048;24.638;2023-04-30T02:55:03;97153.25;;;11.62;100.00
10464;BME280;5279;42.048;24.638;2023-04-30T02:57:30;97153.25;;;11.62;100.00
10464;BME280;5279;42.048;24.638;2023-04-30T02:59:58;97151.25;;;11.56;100.00
10464;BME280;5279;42.048;24.638;2023-04-30T03:02:24;97155.56;;;11.57;100.00
10464;BME280;5279;42.048;24.638;2023-04-30T03:04:51;97157.84;;;11.52;100.00
10464;BME280;5279;42.048;24.638;2023-04-30T03:07:20;97158.50;;;11.46;100.00
10464;BME280;5279;42.048;24.638;2023-04-30T03:09:47;97163.75;;;11.30;100.00
10464;BME280;5279;42.048;24.638;2023-04-30T03:12:14;97153.34;;;11.36;100.00
10464;BME280;5279;42.048;24.638;2023-04-30T03:14:41;97160.50;;;11.44;100.00
10464;BME280;5279;42.048;24.638;2023-04-30T03:17:08;97164.81;;;11.53;100.00
10464;BME280;5279;42.048;24.638;2023-04-30T03:19:35;97160.53;;;11.60;100.00
10464;BME280;5279;42.048;24.638;2023-04-30T03:22:03;97156.53;;;11.48;100.00
10464;BME280;5279;42.048;24.638;2023-04-30T03:24:31;97150.59;;;11.54;100.00
10464;BME280;5279;42.048;24.638;2023-04-30T03:26:58;97153.88;;;11.48;100.00
10464;BME280;5279;42.048;24.638;2023-04-30T03:29:26;97162.81;;;11.47;100.00
10464;BME280;5279;42.048;24.638;2023-04-30T03:31:53;97163.16;;;11.52;100.00
10464;BME280;5279;42.048;24.638;2023-04-30T03:34:20;97163.22;;;11.68;100.00
10464;BME280;5279;42.048;24.638;2023-04-30T03:36:47;97170.28;;;11.85;100.00
10464;BME280;5279;42.048;24.638;2023-04-30T03:39:14;97170.75;;;11.89;100.00
10464;BME280;5279;42.048;24.638;2023-04-30T03:41:42;97184.19;;;11.87;100.00
10464;BME280;5279;42.048;24.638;2023-04-30T03:44:09;97181.56;;;11.95;100.00
10464;BME280;5279;42.048;24.638;2023-04-30T03:46:40;97177.91;;;11.96;100.00
10464;BME280;5279;42.048;24.638;2023-04-30T03:49:07;97181.72;;;12.02;100.00
10464;BME280;5279;42.048;24.638;2023-04-30T03:51:35;97188.91;;;12.10;100.00
10464;BME280;5279;42.048;24.638;2023-04-30T03:54:04;97189.56;;;12.20;100.00
10464;BME280;5279;42.048;24.638;2023-04-30T03:56:31;97195.03;;;12.26;100.00
10464;BME280;5279;42.048;24.638;2023-04-30T03:59:00;97192.88;;;12.30;100.00
10464;BME280;5279;42.048;24.638;2023-04-30T04:01:28;97201.19;;;12.35;100.00
10464;BME280;5279;42.048;24.638;2023-04-30T04:03:55;97201.22;;;12.43;100.00
10464;BME280;5279;42.048;24.638;2023-04-30T04:06:23;97205.03;;;12.48;100.00
10464;BME280;5279;42.048;24.638;2023-04-30T04:08:50;97206.84;;;12.56;100.00
10464;BME280;5279;42.048;24.638;2023-04-30T04:11:31;97207.66;;;12.65;100.00
10464;BME280;5279;42.048;24.638;2023-04-30T04:14:00;97206.34;;;12.69;100.00
10464;BME280;5279;42.048;24.638;2023-04-30T04:16:27;97215.13;;;12.77;100.00
10464;BME280;5279;42.048;24.638;2023-04-30T04:18:54;97219.78;;;12.83;100.00
10464;BME280;5279;42.048;24.638;2023-04-30T04:21:21;97214.16;;;12.78;100.00
10464;BME280;5279;42.048;24.638;2023-04-30T04:23:48;97219.47;;;12.70;100.00
10464;BME280;5279;42.048;24.638;2023-04-30T04:26:15;97228.78;;;12.66;100.00
10464;BME280;5279;42.048;24.638;2023-04-30T04:28:44;97230.09;;;12.70;100.00
10464;BME280;5279;42.048;24.638;2023-04-30T04:31:13;97217.81;;;12.61;100.00
10464;BME280;5279;42.048;24.638;2023-04-30T04:33:41;97224.44;;;12.57;100.00
10464;BME280;5279;42.048;24.638;2023-04-30T04:36:07;97221.78;;;12.65;100.00
10464;BME280;5279;42.048;24.638;2023-04-30T04:38:34;97230.78;;;12.64;100.00
10464;BME280;5279;42.048;24.638;2023-04-30T04:41:02;97226.13;;;12.66;100.00
10464;BME280;5279;42.048;24.638;2023-04-30T04:43:29;97231.09;;;12.69;100.00
10464;BME280;5279;42.048;24.638;2023-04-30T04:45:56;97228.59;;;12.84;100.00
10464;BME280;5279;42.048;24.638;2023-04-30T04:48:24;97223.75;;;12.95;100.00
10464;BME280;5279;42.048;24.638;2023-04-30T04:50:51;97217.41;;;13.04;100.00
10464;BME280;5279;42.048;24.638;2023-04-30T04:53:18;97219.44;;;13.19;100.00
10464;BME280;5279;42.048;24.638;2023-04-30T05:12:45;97231.66;;;15.04;100.00
10464;BME280;5279;42.048;24.638;2023-04-30T05:15:13;97226.78;;;15.08;100.00
10464;BME280;5279;42.048;24.638;2023-04-30T05:17:40;97221.19;;;15.17;100.00
10464;BME280;5279;42.048;24.638;2023-04-30T05:20:08;97225.31;;;15.20;100.00
10464;BME280;5279;42.048;24.638;2023-04-30T05:22:35;97227.47;;;15.24;100.00
10464;BME280;5279;42.048;24.638;2023-04-30T05:25:04;97231.34;;;15.37;100.00
10464;BME280;5279;42.048;24.638;2023-04-30T05:27:31;97229.19;;;15.32;100.00
10464;BME280;5279;42.048;24.638;2023-04-30T05:30:00;97233.53;;;15.18;100.00
10464;BME280;5279;42.048;24.638;2023-04-30T05:32:27;97237.66;;;15.21;100.00
10464;BME280;5279;42.048;24.638;2023-04-30T05:34:55;97243.38;;;15.18;100.00
10464;BME280;5279;42.048;24.638;2023-04-30T05:37:22;97244.56;;;15.15;100.00
10464;BME280;5279;42.048;24.638;2023-04-30T05:39:49;97244.56;;;15.15;100.00
10464;BME280;5279;42.048;24.638;2023-04-30T05:42:18;97243.72;;;15.15;100.00
10464;BME280;5279;42.048;24.638;2023-04-30T05:44:45;97245.94;;;15.11;100.00
10464;BME280;5279;42.048;24.638;2023-04-30T05:47:13;97243.50;;;15.02;100.00
10464;BME280;5279;42.048;24.638;2023-04-30T05:49:40;97238.28;;;15.08;100.00
10464;BME280;5279;42.048;24.638;2023-04-30T05:52:07;97242.91;;;15.14;100.00
10464;BME280;5279;42.048;24.638;2023-04-30T05:54:34;97235.81;;;15.21;91.39
10464;BME280;5279;42.048;24.638;2023-04-30T05:57:01;97237.78;;;15.27;82.63
10464;BME280;5279;42.048;24.638;2023-04-30T05:59:28;97245.16;;;15.40;82.67
10464;BME280;5279;42.048;24.638;2023-04-30T06:01:55;97246.75;;;15.64;84.51
10464;BME280;5279;42.048;24.638;2023-04-30T06:04:24;97239.91;;;15.91;83.80
10464;BME280;5279;42.048;24.638;2023-04-30T06:06:51;97244.28;;;16.13;78.17
10464;BME280;5279;42.048;24.638;2023-04-30T06:09:18;97249.66;;;16.34;73.63
10464;BME280;5279;42.048;24.638;2023-04-30T06:11:45;97243.53;;;16.55;77.16
10464;BME280;5279;42.048;24.638;2023-04-30T06:14:15;97254.50;;;16.81;74.82
10464;BME280;5279;42.048;24.638;2023-04-30T06:16:42;97247.38;;;17.16;77.57
10464;BME280;5279;42.048;24.638;2023-04-30T06:19:09;97240.91;;;17.31;79.56
10464;BME280;5279;42.048;24.638;2023-04-30T06:21:37;97248.25;;;17.51;72.29
10464;BME280;5279;42.048;24.638;2023-04-30T06:24:05;97235.59;;;17.72;71.56
10464;BME280;5279;42.048;24.638;2023-04-30T06:26:32;97233.13;;;18.18;75.30
10464;BME280;5279;42.048;24.638;2023-04-30T06:28:58;97241.53;;;18.56;73.86
10464;BME280;5279;42.048;24.638;2023-04-30T06:31:25;97237.47;;;18.93;74.89
10464;BME280;5279;42.048;24.638;2023-04-30T06:33:52;97235.00;;;19.11;71.68
10464;BME280;5279;42.048;24.638;2023-04-30T06:36:19;97237.88;;;19.16;68.42
10464;BME280;5279;42.048;24.638;2023-04-30T06:38:47;97244.88;;;19.37;71.41
10464;BME280;5279;42.048;24.638;2023-04-30T06:41:14;97232.91;;;19.52;72.94
10464;BME280;5279;42.048;24.638;2023-04-30T06:43:42;97245.31;;;19.40;70.78
10464;BME280;5279;42.048;24.638;2023-04-30T06:46:09;97238.06;;;19.34;72.72
10464;BME280;5279;42.048;24.638;2023-04-30T06:48:36;97241.56;;;19.28;69.72
10464;BME280;5279;42.048;24.638;2023-04-30T06:51:03;97238.09;;;19.41;71.60
10464;BME280;5279;42.048;24.638;2023-04-30T06:53:30;97243.84;;;19.31;70.71
10464;BME280;5279;42.048;24.638;2023-04-30T06:55:58;97238.28;;;19.52;71.15
10464;BME280;5279;42.048;24.638;2023-04-30T06:58:25;97241.09;;;19.90;72.84
10464;BME280;5279;42.048;24.638;2023-04-30T07:00:52;97238.56;;;20.02;69.17
10464;BME280;5279;42.048;24.638;2023-04-30T07:03:19;97234.34;;;20.26;68.45
10464;BME280;5279;42.048;24.638;2023-04-30T07:05:46;97226.00;;;20.34;65.58
10464;BME280;5279;42.048;24.638;2023-04-30T07:08:13;97236.75;;;20.40;64.48
10464;BME280;5279;42.048;24.638;2023-04-30T07:10:40;97231.06;;;20.55;63.71
10464;BME280;5279;42.048;24.638;2023-04-30T07:13:09;97237.13;;;20.50;61.78
10464;BME280;5279;42.048;24.638;2023-04-30T07:15:37;97240.84;;;20.49;62.03
10464;BME280;5279;42.048;24.638;2023-04-30T07:18:05;97233.19;;;20.46;64.10
10464;BME280;5279;42.048;24.638;2023-04-30T07:20:32;97232.72;;;20.56;63.11
10464;BME280;5279;42.048;24.638;2023-04-30T07:22:59;97233.06;;;20.22;63.20
10464;BME280;5279;42.048;24.638;2023-04-30T07:25:26;97240.22;;;20.47;64.29
10464;BME280;5279;42.048;24.638;2023-04-30T07:27:54;97239.97;;;20.55;62.91
10464;BME280;5279;42.048;24.638;2023-04-30T07:30:22;97240.22;;;20.85;62.43
10464;BME280;5279;42.048;24.638;2023-04-30T07:32:49;97240.06;;;21.05;62.42
10464;BME280;5279;42.048;24.638;2023-04-30T07:35:16;97237.84;;;21.27;59.16
10464;BME280;5279;42.048;24.638;2023-04-30T07:37:43;97232.00;;;21.54;57.35
10464;BME280;5279;42.048;24.638;2023-04-30T07:40:11;97235.88;;;21.58;55.61
10464;BME280;5279;42.048;24.638;2023-04-30T07:42:38;97232.56;;;21.56;54.72
10464;BME280;5279;42.048;24.638;2023-04-30T07:45:07;97237.00;;;21.26;55.96
10464;BME280;5279;42.048;24.638;2023-04-30T07:47:35;97225.34;;;21.32;52.11
10464;BME280;5279;42.048;24.638;2023-04-30T07:50:02;97235.41;;;21.61;47.36
10464;BME280;5279;42.048;24.638;2023-04-30T07:52:29;97231.84;;;21.86;49.42
10464;BME280;5279;42.048;24.638;2023-04-30T07:54:56;97235.78;;;21.90;46.69
10464;BME280;5279;42.048;24.638;2023-04-30T07:57:23;97223.06;;;21.97;42.44
10464;BME280;5279;42.048;24.638;2023-04-30T07:59:51;97224.94;;;21.71;40.14
10464;BME280;5279;42.048;24.638;2023-04-30T08:02:18;97224.50;;;21.74;42.90
10464;BME280;5279;42.048;24.638;2023-04-30T08:04:46;97230.81;;;21.87;42.17
10464;BME280;5279;42.048;24.638;2023-04-30T08:07:13;97231.63;;;21.69;40.10
10464;BME280;5279;42.048;24.638;2023-04-30T08:09:41;97229.91;;;21.74;39.39
10464;BME280;5279;42.048;24.638;2023-04-30T08:12:08;97227.69;;;21.90;40.29
10464;BME280;5279;42.048;24.638;2023-04-30T08:14:35;97235.81;;;21.65;40.47
10464;BME280;5279;42.048;24.638;2023-04-30T08:17:02;97227.19;;;21.07;38.40
10464;BME280;5279;42.048;24.638;2023-04-30T08:19:28;97223.38;;;21.21;40.43
10464;BME280;5279;42.048;24.638;2023-04-30T08:21:57;97235.81;;;20.91;41.25
10464;BME280;5279;42.048;24.638;2023-04-30T08:24:24;97217.22;;;21.07;39.83
10464;BME280;5279;42.048;24.638;2023-04-30T08:26:51;97202.75;;;21.33;43.41
10464;BME280;5279;42.048;24.638;2023-04-30T08:29:18;97224.59;;;21.43;37.13
10464;BME280;5279;42.048;24.638;2023-04-30T08:31:45;97215.91;;;21.23;41.38
10464;BME280;5279;42.048;24.638;2023-04-30T08:34:12;97220.50;;;21.16;38.08
10464;BME280;5279;42.048;24.638;2023-04-30T08:36:38;97221.28;;;20.92;38.41
10464;BME280;5279;42.048;24.638;2023-04-30T08:39:07;97223.47;;;20.77;39.21
10464;BME280;5279;42.048;24.638;2023-04-30T08:41:35;97209.94;;;20.58;38.92
10464;BME280;5279;42.048;24.638;2023-04-30T08:44:02;97215.91;;;20.92;43.21
10464;BME280;5279;42.048;24.638;2023-04-30T08:46:31;97215.31;;;20.90;38.98
10464;BME280;5279;42.048;24.638;2023-04-30T08:48:58;97209.91;;;20.90;40.22
10464;BME280;5279;42.048;24.638;2023-04-30T08:51:25;97213.13;;;21.05;40.73
10464;BME280;5279;42.048;24.638;2023-04-30T08:53:54;97212.59;;;21.21;41.00
10464;BME280;5279;42.048;24.638;2023-04-30T08:56:23;97213.81;;;21.43;38.52
10464;BME280;5279;42.048;24.638;2023-04-30T08:58:50;97216.03;;;21.71;38.79
10464;BME280;5279;42.048;24.638;2023-04-30T09:01:17;97209.63;;;21.90;38.62
10464;BME280;5279;42.048;24.638;2023-04-30T09:03:45;97205.97;;;22.03;38.08
10464;BME280;5279;42.048;24.638;2023-04-30T09:06:14;97200.41;;;22.16;36.78
10464;BME280;5279;42.048;24.638;2023-04-30T09:08:43;97209.09;;;22.18;37.18
10464;BME280;5279;42.048;24.638;2023-04-30T09:11:26;97195.03;;;22.57;39.75
10464;BME280;5279;42.048;24.638;2023-04-30T09:13:55;97193.28;;;23.04;36.39
10464;BME280;5279;42.048;24.638;2023-04-30T09:16:22;97191.00;;;22.78;34.88
10464;BME280;5279;42.048;24.638;2023-04-30T09:18:49;97189.00;;;22.44;36.71
10464;BME280;5279;42.048;24.638;2023-04-30T09:21:29;97197.47;;;22.47;36.04
10464;BME280;5279;42.048;24.638;2023-04-30T09:23:58;97183.63;;;22.73;37.54
10464;BME280;5279;42.048;24.638;2023-04-30T09:26:31;97182.16;;;23.47;37.86
10464;BME280;5279;42.048;24.638;2023-04-30T09:28:58;97191.19;;;23.87;35.63
10464;BME280;5279;42.048;24.638;2023-04-30T09:31:26;97185.38;;;24.19;34.71
10464;BME280;5279;42.048;24.638;2023-04-30T09:33:54;97184.84;;;23.82;35.37
10464;BME280;5279;42.048;24.638;2023-04-30T09:36:21;97185.91;;;23.23;34.63
10464;BME280;5279;42.048;24.638;2023-04-30T09:38:47;97179.19;;;22.49;36.24
10464;BME280;5279;42.048;24.638;2023-04-30T09:41:22;97186.47;;;22.01;37.02
10464;BME280;5279;42.048;24.638;2023-04-30T09:43:51;97172.22;;;21.75;37.64
10464;BME280;5279;42.048;24.638;2023-04-30T09:46:18;97178.06;;;21.72;39.81
10464;BME280;5279;42.048;24.638;2023-04-30T09:48:46;97179.22;;;21.40;38.28
10464;BME280;5279;42.048;24.638;2023-04-30T09:51:14;97175.19;;;21.67;38.39
10464;BME280;5279;42.048;24.638;2023-04-30T09:53:41;97158.88;;;21.80;39.09
10464;BME280;5279;42.048;24.638;2023-04-30T09:56:10;97163.53;;;22.10;37.89
10464;BME280;5279;42.048;24.638;2023-04-30T09:58:38;97166.53;;;22.31;36.04
10464;BME280;5279;42.048;24.638;2023-04-30T10:01:10;97161.19;;;22.84;36.32
10464;BME280;5279;42.048;24.638;2023-04-30T10:03:38;97166.88;;;22.95;35.98
10464;BME280;5279;42.048;24.638;2023-04-30T10:06:06;97159.22;;;23.03;36.27
10464;BME280;5279;42.048;24.638;2023-04-30T10:08:39;97164.88;;;23.36;35.14
10464;BME280;5279;42.048;24.638;2023-04-30T10:11:08;97168.06;;;23.57;34.64
10464;BME280;5279;42.048;24.638;2023-04-30T10:13:40;97158.75;;;23.76;34.66
10464;BME280;5279;42.048;24.638;2023-04-30T10:16:14;97151.75;;;23.91;34.25
10464;BME280;5279;42.048;24.638;2023-04-30T10:18:48;97155.47;;;24.14;35.01
10464;BME280;5279;42.048;24.638;2023-04-30T10:21:17;97146.97;;;24.22;33.05
10464;BME280;5279;42.048;24.638;2023-04-30T10:23:47;97137.69;;;24.63;33.06
10464;BME280;5279;42.048;24.638;2023-04-30T10:26:14;97151.72;;;25.05;30.54
10464;BME280;5279;42.048;24.638;2023-04-30T10:28:42;97134.84;;;25.52;31.24
10464;BME280;5279;42.048;24.638;2023-04-30T10:31:11;97134.34;;;25.77;31.78
10464;BME280;5279;42.048;24.638;2023-04-30T10:33:45;97144.50;;;25.65;29.88
10464;BME280;5279;42.048;24.638;2023-04-30T10:36:28;97133.34;;;25.83;30.47
10464;BME280;5279;42.048;24.638;2023-04-30T10:38:58;97131.09;;;26.24;33.38
10464;BME280;5279;42.048;24.638;2023-04-30T10:41:26;97123.38;;;26.64;32.71
10464;BME280;5279;42.048;24.638;2023-04-30T10:43:56;97129.97;;;26.41;29.88
10464;BME280;5279;42.048;24.638;2023-04-30T10:46:26;97130.31;;;26.01;30.77
10464;BME280;5279;42.048;24.638;2023-04-30T10:48:53;97119.63;;;25.73;29.55
10464;BME280;5279;42.048;24.638;2023-04-30T10:51:20;97121.34;;;25.79;28.76
10464;BME280;5279;42.048;24.638;2023-04-30T10:53:48;97122.47;;;25.83;29.35
10464;BME280;5279;42.048;24.638;2023-04-30T10:56:29;97116.13;;;25.99;31.09
10464;BME280;5279;42.048;24.638;2023-04-30T10:58:58;97122.06;;;25.96;31.10
10464;BME280;5279;42.048;24.638;2023-04-30T11:01:27;97120.94;;;25.32;32.31
10464;BME280;5279;42.048;24.638;2023-04-30T11:04:05;97112.13;;;25.42;31.87
10464;BME280;5279;42.048;24.638;2023-04-30T11:06:48;97116.75;;;25.80;31.38
10464;BME280;5279;42.048;24.638;2023-04-30T11:09:15;97101.88;;;25.87;31.13
10464;BME280;5279;42.048;24.638;2023-04-30T11:11:43;97112.22;;;26.34;31.70
10464;BME280;5279;42.048;24.638;2023-04-30T11:14:10;97115.13;;;26.54;28.52
10464;BME280;5279;42.048;24.638;2023-04-30T11:16:38;97100.63;;;26.17;28.06
10464;BME280;5279;42.048;24.638;2023-04-30T11:19:05;97113.00;;;26.07;28.90
10464;BME280;5279;42.048;24.638;2023-04-30T11:21:39;97098.38;;;25.65;28.43
10464;BME280;5279;42.048;24.638;2023-04-30T11:24:06;97101.22;;;25.37;28.94
10464;BME280;5279;42.048;24.638;2023-04-30T11:29:42;97103.75;;;26.08;27.95
10464;BME280;5279;42.048;24.638;2023-04-30T11:32:12;97095.84;;;25.80;30.31
10464;BME280;5279;42.048;24.638;2023-04-30T11:34:42;97083.28;;;25.96;27.17
10464;BME280;5279;42.048;24.638;2023-04-30T11:37:11;97085.78;;;25.21;28.25
10464;BME280;5279;42.048;24.638;2023-04-30T11:39:39;97105.03;;;25.02;29.20
10464;BME280;5279;42.048;24.638;2023-04-30T11:42:06;97101.94;;;24.77;29.84
10464;BME280;5279;42.048;24.638;2023-04-30T11:44:33;97100.59;;;24.63;30.76
10464;BME280;5279;42.048;24.638;2023-04-30T11:47:00;97105.50;;;24.66;29.75
10464;BME280;5279;42.048;24.638;2023-04-30T11:49:28;97106.84;;;24.64;29.90
10464;BME280;5279;42.048;24.638;2023-04-30T11:51:55;97105.66;;;24.43;30.23
10464;BME280;5279;42.048;24.638;2023-04-30T11:54:22;97108.63;;;24.02;30.29
10464;BME280;5279;42.048;24.638;2023-04-30T11:56:49;97101.81;;;23.71;31.47
10464;BME280;5279;42.048;24.638;2023-04-30T11:59:17;97097.28;;;23.02;31.86
10464;BME280;5279;42.048;24.638;2023-04-30T12:01:47;97101.75;;;22.84;32.72
10464;BME280;5279;42.048;24.638;2023-04-30T12:04:14;97092.72;;;22.79;35.09
10464;BME280;5279;42.048;24.638;2023-04-30T12:06:42;97093.41;;;22.74;32.90
10464;BME280;5279;42.048;24.638;2023-04-30T12:09:09;97086.97;;;23.22;34.51
10464;BME280;5279;42.048;24.638;2023-04-30T12:11:37;97088.81;;;23.84;33.36
10464;BME280;5279;42.048;24.638;2023-04-30T12:14:06;97081.03;;;24.28;31.93
10464;BME280;5279;42.048;24.638;2023-04-30T12:16:39;97067.91;;;24.53;31.66
10464;BME280;5279;42.048;24.638;2023-04-30T12:19:10;97075.75;;;24.38;31.23
10464;BME280;5279;42.048;24.638;2023-04-30T12:21:37;97068.75;;;24.70;33.06
10464;BME280;5279;42.048;24.638;2023-04-30T12:24:06;97069.84;;;24.86;32.10
10464;BME280;5279;42.048;24.638;2023-04-30T12:26:36;97069.91;;;24.74;31.93
10464;BME280;5279;42.048;24.638;2023-04-30T12:29:04;97068.88;;;24.47;31.17
10464;BME280;5279;42.048;24.638;2023-04-30T12:31:32;97079.09;;;24.90;32.97
10464;BME280;5279;42.048;24.638;2023-04-30T12:34:03;97085.91;;;24.76;31.84
10464;BME280;5279;42.048;24.638;2023-04-30T12:36:31;97070.66;;;24.86;32.07
10464;BME280;5279;42.048;24.638;2023-04-30T12:39:09;97069.66;;;24.59;31.69
10464;BME280;5279;42.048;24.638;2023-04-30T12:41:38;97064.69;;;23.94;33.26
10464;BME280;5279;42.048;24.638;2023-04-30T12:44:16;97066.59;;;23.82;33.79
10464;BME280;5279;42.048;24.638;2023-04-30T12:46:43;97057.78;;;24.32;34.92
10464;BME280;5279;42.048;24.638;2023-04-30T12:49:11;97061.38;;;24.82;33.32
10464;BME280;5279;42.048;24.638;2023-04-30T12:51:38;97064.88;;;24.99;32.92
10464;BME280;5279;42.048;24.638;2023-04-30T12:54:09;97074.59;;;25.34;32.67
10464;BME280;5279;42.048;24.638;2023-04-30T12:56:36;97060.88;;;25.62;31.52
10464;BME280;5279;42.048;24.638;2023-04-30T12:59:13;97066.31;;;25.62;33.01
10464;BME280;5279;42.048;24.638;2023-04-30T13:01:43;97067.75;;;25.70;31.25
10464;BME280;5279;42.048;24.638;2023-04-30T13:04:11;97068.91;;;26.00;32.04
10464;BME280;5279;42.048;24.638;2023-04-30T13:06:38;97062.44;;;26.01;30.24
10464;BME280;5279;42.048;24.638;2023-04-30T13:09:05;97062.59;;;25.68;31.88
10464;BME280;5279;42.048;24.638;2023-04-30T13:11:33;97066.81;;;25.59;31.35
10464;BME280;5279;42.048;24.638;2023-04-30T13:14:00;97052.78;;;25.67;29.81
10464;BME280;5279;42.048;24.638;2023-04-30T13:16:27;97055.53;;;25.29;28.25
10464;BME280;5279;42.048;24.638;2023-04-30T13:18:55;97096.84;;;24.81;30.09
10464;BME280;5279;42.048;24.638;2023-04-30T13:21:22;97104.06;;;23.62;34.28